Pierrepont Manor, New York
Current Conditions -  °F | °C
As of 10:56 AM on Monday 22 Dec 2014 (Local Time) from KART Reporting Station
Overcast Overcast  
Wind Chill: 26°   Ceiling: 2500
Heat Index: 32°   Visibility: 10mi
Dew Point: 23°   Wind: 7mph
Humidity: 69%   Direction: 60°ENE
Pressure: 30.29"   Gusts: NA
Location:  43.73°N, 76.06°W
Report Text: KART 221556Z AUTO 06006KT 10SM OVC025 00/M05 A3029 RMK AO2 SLP264 T00001050
Loading
Personal Weather Stations






























Interactive Weather Map New forecast layout! Learn more

10-Day Weather Forecast

Advertisements
Track Severe Weather on mobile